createdAt,value
2018-08-19T00:01:45.119Z,59.80
2018-08-19T00:04:14.571Z,25.07
2018-08-19T00:06:44.001Z,13.57
2018-08-19T00:09:12.579Z,28.80
2018-08-19T00:11:42.156Z,61.67
2018-08-19T00:14:25.457Z,17.57
2018-08-19T00:16:54.906Z,28.30
2018-08-19T00:19:23.368Z,53.57
2018-08-19T00:21:51.836Z,39.87
2018-08-19T00:24:20.176Z,78.40
2018-08-19T00:26:48.747Z,47.70
2018-08-19T00:29:23.795Z,60.47
2018-08-19T00:31:52.948Z,56.87
2018-08-19T00:34:30.391Z,29.43
2018-08-19T00:36:58.811Z,41.67
2018-08-19T00:39:27.180Z,29.03
2018-08-19T00:41:56.052Z,54.53
2018-08-19T00:44:24.446Z,27.37
2018-08-19T00:46:52.860Z,58.03
2018-08-19T00:49:21.392Z,24.83
2018-08-19T00:51:54.954Z,10.63
2018-08-19T00:54:23.576Z,12.87
2018-08-19T00:56:55.639Z,26.53
2018-08-19T00:59:25.421Z,25.23
2018-08-19T01:01:53.888Z,41.63
2018-08-19T01:04:22.388Z,31.47
2018-08-19T01:06:52.949Z,36.80
2018-08-19T01:09:24.690Z,16.80
2018-08-19T01:11:53.100Z,21.80
2018-08-19T01:14:21.552Z,13.50
2018-08-19T01:16:49.924Z,36.80
2018-08-19T01:19:18.980Z,28.70
2018-08-19T01:21:51.831Z,26.30
2018-08-19T01:24:20.498Z,22.07
2018-08-19T01:26:48.925Z,17.47
2018-08-19T01:29:28.716Z,21.10
2018-08-19T01:32:00.089Z,18.20
2018-08-19T01:34:28.490Z,12.80
2018-08-19T01:36:57.032Z,18.00
2018-08-19T01:39:25.372Z,34.23
2018-08-19T01:41:53.860Z,21.87
2018-08-19T01:44:22.312Z,14.53
2018-08-19T01:46:51.541Z,21.77
2018-08-19T01:49:19.874Z,34.47
2018-08-19T01:51:48.629Z,35.97
2018-08-19T01:54:22.296Z,15.80
2018-08-19T01:56:54.156Z,22.20
2018-08-19T01:59:23.188Z,25.10
2018-08-19T02:01:53.429Z,50.33
2018-08-19T02:04:22.512Z,10.07
2018-08-19T02:06:53.866Z,6.97
2018-08-19T02:09:22.570Z,27.73
2018-08-19T02:11:56.689Z,26.47
2018-08-19T02:14:25.369Z,21.27
2018-08-19T02:16:54.583Z,21.33
2018-08-19T02:19:23.024Z,14.13
2018-08-19T02:21:52.098Z,21.07
2018-08-19T02:24:20.632Z,12.10
2018-08-19T02:26:49.188Z,9.47
2018-08-19T02:29:31.858Z,16.40
2018-08-19T02:32:02.391Z,10.43
2018-08-19T02:34:31.750Z,23.67
2018-08-19T02:37:04.142Z,9.10
2018-08-19T02:39:34.375Z,9.57
2018-08-19T02:42:02.766Z,18.50
2018-08-19T02:44:31.234Z,8.67
2018-08-19T02:46:59.828Z,10.63
2018-08-19T02:49:28.304Z,10.57
2018-08-19T02:51:56.749Z,8.13
2018-08-19T02:54:25.105Z,7.23
2018-08-19T02:56:53.444Z,6.77
2018-08-19T02:59:21.896Z,8.90
2018-08-19T03:01:50.568Z,12.63
2018-08-19T03:04:19.032Z,6.90
2018-08-19T03:06:47.507Z,8.93
2018-08-19T03:09:15.916Z,8.40
2018-08-19T03:11:44.452Z,17.67
2018-08-19T03:14:12.828Z,7.93
2018-08-19T03:16:41.236Z,7.40
2018-08-19T03:19:09.560Z,7.67
2018-08-19T03:21:38.107Z,7.07
2018-08-19T03:24:06.508Z,6.90
2018-08-19T03:26:34.950Z,12.40
2018-08-19T03:29:08.638Z,10.50
2018-08-19T03:31:37.060Z,9.37
2018-08-19T03:34:05.488Z,6.70
2018-08-19T03:36:33.972Z,7.90
2018-08-19T03:39:11.683Z,8.50
2018-08-19T03:41:40.148Z,9.53
2018-08-19T03:44:08.504Z,11.23
2018-08-19T03:46:36.888Z,7.53
2018-08-19T03:49:05.394Z,10.70
2018-08-19T03:51:33.724Z,6.57
2018-08-19T03:54:02.058Z,8.33
2018-08-19T03:56:30.456Z,6.23
2018-08-19T03:59:00.099Z,7.50
2018-08-19T04:01:36.304Z,7.40
2018-08-19T04:04:04.682Z,7.00
2018-08-19T04:06:33.055Z,6.97
2018-08-19T04:09:01.530Z,7.80
2018-08-19T04:11:29.852Z,7.30
2018-08-19T04:13:58.165Z,7.00
2018-08-19T04:16:26.705Z,7.50
2018-08-19T04:19:04.856Z,6.77
2018-08-19T04:21:33.325Z,7.10
2018-08-19T04:24:01.662Z,9.63
2018-08-19T04:26:30.702Z,7.60
2018-08-19T04:28:59.212Z,6.60
2018-08-19T04:31:27.601Z,7.13
2018-08-19T04:33:56.030Z,7.10
2018-08-19T04:36:25.272Z,7.50
2018-08-19T04:38:53.628Z,7.37
2018-08-19T04:41:21.971Z,9.43
2018-08-19T04:43:50.464Z,6.10
2018-08-19T04:46:18.800Z,5.03
2018-08-19T04:48:48.060Z,5.83
2018-08-19T04:51:16.781Z,5.77
2018-08-19T04:53:45.104Z,6.30
2018-08-19T04:56:13.430Z,6.20
2018-08-19T04:58:41.824Z,6.23
2018-08-19T05:01:10.652Z,6.60
2018-08-19T05:03:39.125Z,8.07
2018-08-19T05:06:07.539Z,6.87
2018-08-19T05:08:35.927Z,6.60
2018-08-19T05:11:04.314Z,7.60
2018-08-19T05:13:32.696Z,9.30
2018-08-19T05:16:01.116Z,7.57
2018-08-19T05:18:29.460Z,8.27
2018-08-19T05:21:17.004Z,7.77
2018-08-19T05:23:45.412Z,7.83
2018-08-19T05:26:14.076Z,8.40
2018-08-19T05:28:45.468Z,9.30
2018-08-19T05:31:13.885Z,8.30
2018-08-19T05:33:42.675Z,13.13
2018-08-19T05:36:11.180Z,15.47
2018-08-19T05:38:39.586Z,10.90
2018-08-19T05:41:10.004Z,8.70
2018-08-19T05:43:38.634Z,8.97
2018-08-19T05:46:06.988Z,10.67
2018-08-19T05:48:35.354Z,8.43
2018-08-19T05:51:03.986Z,11.97
2018-08-19T05:53:32.716Z,7.70
2018-08-19T05:56:01.141Z,16.83
2018-08-19T05:58:29.594Z,21.67
2018-08-19T06:00:59.959Z,15.77
2018-08-19T06:03:28.571Z,14.67
2018-08-19T06:05:57.426Z,7.83
2018-08-19T06:08:25.956Z,14.67
2018-08-19T06:10:54.344Z,7.53
2018-08-19T06:13:22.971Z,15.70
2018-08-19T06:15:51.367Z,7.97
2018-08-19T06:18:19.716Z,7.60
2018-08-19T06:20:48.080Z,8.40
2018-08-19T06:23:16.438Z,9.00
2018-08-19T06:25:44.850Z,18.50
2018-08-19T06:28:13.318Z,11.33
2018-08-19T06:30:41.642Z,8.23
2018-08-19T06:33:10.253Z,20.07
2018-08-19T06:35:38.624Z,9.33
2018-08-19T06:38:07.000Z,8.90
2018-08-19T06:40:35.365Z,7.07
2018-08-19T06:43:03.925Z,13.10
2018-08-19T06:45:32.269Z,15.67
2018-08-19T06:48:00.664Z,9.80
2018-08-19T06:50:30.929Z,15.30
2018-08-19T06:52:59.285Z,9.17
2018-08-19T06:55:27.699Z,18.93
2018-08-19T06:57:58.530Z,11.97
2018-08-19T07:00:28.766Z,18.90
2018-08-19T07:02:58.988Z,9.90
2018-08-19T07:05:27.632Z,14.60
2018-08-19T07:07:56.106Z,15.43
2018-08-19T07:10:31.153Z,10.63
2018-08-19T07:13:04.424Z,11.07
2018-08-19T07:15:33.021Z,27.07
2018-08-19T07:18:01.392Z,19.20
2018-08-19T07:20:29.795Z,13.63
2018-08-19T07:22:58.195Z,29.23
2018-08-19T07:25:26.614Z,18.20
2018-08-19T07:27:54.992Z,48.40
2018-08-19T07:30:23.408Z,30.73
2018-08-19T07:32:51.758Z,44.67
2018-08-19T07:35:20.157Z,23.40
2018-08-19T07:37:48.784Z,12.67
2018-08-19T07:40:17.261Z,23.97
2018-08-19T07:42:45.940Z,24.63
2018-08-19T07:45:14.429Z,55.63
2018-08-19T07:47:42.880Z,19.53
2018-08-19T07:50:11.596Z,48.50
2018-08-19T07:52:40.311Z,41.53
2018-08-19T07:55:09.298Z,27.90
2018-08-19T07:57:41.347Z,85.20
2018-08-19T08:00:10.499Z,42.63
2018-08-19T08:02:39.101Z,32.87
2018-08-19T08:05:09.006Z,90.63
2018-08-19T08:07:38.846Z,58.87
2018-08-19T08:10:07.324Z,52.60
2018-08-19T08:12:35.941Z,209.87
2018-08-19T08:15:04.388Z,168.77
2018-08-19T08:17:32.846Z,55.23
2018-08-19T08:20:02.114Z,92.37
2018-08-19T08:22:31.404Z,57.33
2018-08-19T08:25:00.230Z,73.07
2018-08-19T08:27:29.492Z,105.80
2018-08-19T08:29:57.848Z,73.93
2018-08-19T08:32:26.341Z,95.00
2018-08-19T08:34:54.883Z,225.03
2018-08-19T08:37:23.334Z,119.70
2018-08-19T08:40:00.717Z,298.90
2018-08-19T08:42:33.752Z,146.33
2018-08-19T08:45:02.635Z,299.60
2018-08-19T08:47:31.870Z,116.73
2018-08-19T08:50:00.208Z,108.50
2018-08-19T08:52:28.721Z,169.33
2018-08-19T08:55:02.080Z,262.00
2018-08-19T08:57:30.580Z,133.13
2018-08-19T08:59:58.977Z,131.27
2018-08-19T09:02:28.418Z,228.23
2018-08-19T09:04:57.009Z,245.47
2018-08-19T09:07:27.079Z,182.83
2018-08-19T09:09:55.489Z,202.50
2018-08-19T09:12:35.110Z,290.53
2018-08-19T09:15:03.536Z,394.40
2018-08-19T09:17:32.112Z,190.87
2018-08-19T09:20:00.661Z,176.37
2018-08-19T09:22:29.078Z,173.07
2018-08-19T09:24:57.451Z,188.83
2018-08-19T09:27:26.104Z,244.20
2018-08-19T09:29:54.600Z,315.90
2018-08-19T09:32:23.100Z,228.00
2018-08-19T09:34:51.660Z,234.60
2018-08-19T09:37:20.032Z,313.23
2018-08-19T09:39:48.433Z,280.60
2018-08-19T09:42:16.992Z,338.27
2018-08-19T09:44:45.332Z,269.33
2018-08-19T09:47:13.774Z,326.33
2018-08-19T09:49:42.332Z,309.13
2018-08-19T09:52:10.740Z,272.37
2018-08-19T09:54:39.365Z,345.50
2018-08-19T09:57:08.861Z,500.10
2018-08-19T09:59:37.243Z,278.60
2018-08-19T10:02:08.907Z,269.53
2018-08-19T10:04:37.378Z,350.97
2018-08-19T10:07:10.367Z,437.70
2018-08-19T10:09:39.067Z,344.87
2018-08-19T10:12:07.959Z,399.40
2018-08-19T10:14:36.411Z,370.07
2018-08-19T10:17:05.038Z,466.43
2018-08-19T10:19:33.689Z,363.27
2018-08-19T10:22:02.270Z,398.87
2018-08-19T10:24:37.544Z,493.87
2018-08-19T10:27:08.089Z,424.00
2018-08-19T10:29:36.496Z,436.43
2018-08-19T10:32:05.497Z,446.60
2018-08-19T10:34:35.409Z,525.37
2018-08-19T10:37:04.329Z,545.97
2018-08-19T10:39:32.932Z,535.23
2018-08-19T10:42:18.692Z,566.07
2018-08-19T10:44:49.466Z,594.13
2018-08-19T10:47:18.408Z,614.33
2018-08-19T10:49:54.450Z,589.80
2018-08-19T10:52:26.321Z,579.93
2018-08-19T10:54:56.081Z,703.13
2018-08-19T10:57:24.484Z,544.47
2018-08-19T10:59:56.376Z,608.23
2018-08-19T11:02:24.976Z,475.20
2018-08-19T11:04:58.735Z,576.03
2018-08-19T11:07:27.352Z,608.70
2018-08-19T11:10:12.671Z,555.13
2018-08-19T11:12:41.044Z,565.17
2018-08-19T11:16:14.333Z,619.47
2018-08-19T11:18:44.323Z,554.87
2018-08-19T11:21:44.860Z,575.07
2018-08-19T11:24:18.932Z,516.13
2018-08-19T11:26:51.594Z,587.73
2018-08-19T11:29:19.988Z,609.77
2018-08-19T11:31:48.409Z,592.10
2018-08-19T11:34:17.839Z,624.83
2018-08-19T11:36:46.496Z,626.50
2018-08-19T11:39:16.318Z,624.07
2018-08-19T11:41:44.921Z,692.23
2018-08-19T11:44:15.902Z,668.07
2018-08-19T11:46:44.408Z,523.60
2018-08-19T11:49:20.142Z,648.93
2018-08-19T11:51:55.063Z,683.17
2018-08-19T11:54:24.951Z,660.23
2018-08-19T11:56:59.845Z,660.47
2018-08-19T11:59:33.381Z,725.10
2018-08-19T12:02:01.942Z,687.70
2018-08-19T12:04:30.358Z,688.17
2018-08-19T12:06:59.024Z,710.10
2018-08-19T12:09:27.539Z,644.13
2018-08-19T12:11:55.886Z,711.17
2018-08-19T12:14:24.464Z,736.43
2018-08-19T12:16:54.632Z,723.33
2018-08-19T12:19:24.172Z,755.17
2018-08-19T12:21:55.947Z,711.17
2018-08-19T12:24:30.004Z,753.23
2018-08-19T12:27:00.375Z,760.80
2018-08-19T12:29:30.985Z,703.80
2018-08-19T12:32:10.902Z,766.43
2018-08-19T12:34:51.622Z,798.00
2018-08-19T12:37:21.365Z,831.93
2018-08-19T12:39:50.205Z,742.20
2018-08-19T12:42:18.604Z,796.70
2018-08-19T12:44:49.577Z,766.90
2018-08-19T12:47:21.139Z,762.97
2018-08-19T12:49:58.077Z,777.05
2018-08-19T12:52:28.885Z,795.80
2018-08-19T12:55:02.583Z,777.45
2018-08-19T12:57:30.980Z,736.62
2018-08-19T13:00:06.141Z,775.10
2018-08-19T13:02:38.964Z,810.60
2018-08-19T13:05:07.472Z,834.67
2018-08-19T13:07:35.888Z,800.73
2018-08-19T13:10:05.754Z,812.35
2018-08-19T13:12:51.392Z,819.75
2018-08-19T13:15:19.799Z,826.75
2018-08-19T13:17:48.248Z,777.58
2018-08-19T13:20:17.735Z,811.97
2018-08-19T13:22:51.021Z,818.15
2018-08-19T13:25:21.009Z,837.10
2018-08-19T13:27:49.415Z,802.52
2018-08-19T13:30:18.796Z,838.08
2018-08-19T13:32:47.571Z,845.83
2018-08-19T13:35:16.067Z,798.92
2018-08-19T13:37:44.523Z,785.40
2018-08-19T13:40:13.785Z,807.30
2018-08-19T13:42:42.534Z,827.50
2018-08-19T13:45:17.927Z,830.00
2018-08-19T13:47:47.577Z,859.25
2018-08-19T13:50:16.055Z,821.27
2018-08-19T13:52:44.875Z,846.25
2018-08-19T13:55:15.451Z,802.15
2018-08-19T13:57:43.839Z,765.33
2018-08-19T14:00:17.704Z,811.35
2018-08-19T14:02:46.863Z,762.00
2018-08-19T14:05:15.303Z,814.42
2018-08-19T14:07:44.163Z,813.00
2018-08-19T14:10:13.908Z,800.40
2018-08-19T14:12:42.583Z,787.55
2018-08-19T14:15:11.012Z,778.10
2018-08-19T14:17:39.483Z,716.03
2018-08-19T14:20:09.376Z,787.20
2018-08-19T14:22:37.768Z,756.40
2018-08-19T14:25:07.663Z,808.68
2018-08-19T14:27:36.273Z,750.15
2018-08-19T14:30:05.865Z,823.42
2018-08-19T14:32:35.666Z,754.90
2018-08-19T14:35:04.850Z,788.55
2018-08-19T14:37:33.347Z,786.40
2018-08-19T14:40:02.643Z,799.48
2018-08-19T14:42:30.966Z,828.90
2018-08-19T14:45:00.181Z,765.17
2018-08-19T14:47:29.947Z,789.63
2018-08-19T14:49:59.254Z,824.93
2018-08-19T14:52:28.468Z,822.60
2018-08-19T14:54:56.887Z,829.85
2018-08-19T14:57:25.531Z,835.43
2018-08-19T14:59:54.150Z,805.00
2018-08-19T15:02:22.613Z,816.05
2018-08-19T15:04:51.097Z,823.67
2018-08-19T15:07:19.685Z,836.22
2018-08-19T15:09:52.877Z,782.80
2018-08-19T15:12:22.697Z,790.15
2018-08-19T15:14:51.527Z,871.05
2018-08-19T15:17:19.915Z,809.05
2018-08-19T15:19:50.708Z,782.08
2018-08-19T15:22:19.200Z,832.77
2018-08-19T15:24:47.620Z,842.47
2018-08-19T15:27:16.036Z,862.48
2018-08-19T15:29:47.418Z,799.62
2018-08-19T15:32:16.110Z,781.87
2018-08-19T15:34:44.540Z,823.55
2018-08-19T15:37:12.936Z,835.33
2018-08-19T15:39:41.435Z,732.62
2018-08-19T15:42:09.858Z,825.73
2018-08-19T15:44:38.220Z,788.98
2018-08-19T15:47:06.786Z,719.52
2018-08-19T15:49:35.444Z,824.95
2018-08-19T15:52:03.954Z,815.12
2018-08-19T15:54:32.612Z,820.70
2018-08-19T15:57:03.179Z,789.58
2018-08-19T15:59:33.755Z,871.63
2018-08-19T16:02:03.162Z,849.50
2018-08-19T16:04:31.635Z,847.10
2018-08-19T16:07:00.664Z,839.87
2018-08-19T16:09:29.693Z,832.50
2018-08-19T16:11:58.131Z,804.83
2018-08-19T16:14:32.581Z,875.53
2018-08-19T16:17:02.413Z,837.20
2018-08-19T16:19:30.840Z,841.47
2018-08-19T16:22:00.288Z,887.33
2018-08-19T16:24:28.996Z,819.10
2018-08-19T16:26:57.425Z,816.20
2018-08-19T16:29:25.787Z,793.57
2018-08-19T16:31:54.405Z,794.42
2018-08-19T16:34:22.868Z,788.33
2018-08-19T16:36:51.331Z,840.00
2018-08-19T16:39:20.502Z,795.47
2018-08-19T16:41:48.802Z,738.27
2018-08-19T16:44:17.360Z,835.00
2018-08-19T16:46:45.878Z,802.50
2018-08-19T16:49:14.364Z,801.42
2018-08-19T16:51:44.312Z,803.55
2018-08-19T16:54:12.761Z,823.27
2018-08-19T16:56:41.208Z,724.30
2018-08-19T16:59:09.840Z,807.13
2018-08-19T17:01:38.393Z,822.03
2018-08-19T17:04:06.712Z,799.67
2018-08-19T17:06:37.220Z,815.72
2018-08-19T17:09:09.880Z,769.03
2018-08-19T17:11:38.240Z,797.33
2018-08-19T17:14:06.776Z,760.73
2018-08-19T17:16:35.526Z,809.53
2018-08-19T17:19:04.074Z,750.97
2018-08-19T17:21:32.420Z,786.25
2018-08-19T17:24:00.972Z,815.20
2018-08-19T17:26:30.241Z,747.57
2018-08-19T17:29:04.897Z,744.73
2018-08-19T17:31:34.120Z,718.87
2018-08-19T17:34:07.012Z,774.20
2018-08-19T17:36:35.654Z,716.23
2018-08-19T17:39:05.143Z,723.53
2018-08-19T17:41:33.672Z,815.77
2018-08-19T17:44:03.664Z,812.07
2018-08-19T17:46:32.258Z,797.33
2018-08-19T17:49:00.895Z,816.63
2018-08-19T17:51:34.254Z,802.63
2018-08-19T17:54:02.898Z,785.00
2018-08-19T17:56:31.312Z,574.07
2018-08-19T17:58:59.912Z,569.20
2018-08-19T18:01:28.665Z,646.00
2018-08-19T18:03:57.147Z,559.57
2018-08-19T18:06:25.532Z,517.90
2018-08-19T18:08:54.496Z,560.97
2018-08-19T18:11:23.133Z,575.70
2018-08-19T18:13:51.612Z,682.63
2018-08-19T18:16:20.169Z,543.60
2018-08-19T18:18:48.968Z,574.70
2018-08-19T18:21:17.464Z,710.70
2018-08-19T18:23:47.906Z,674.67
2018-08-19T18:26:16.515Z,705.10
2018-08-19T18:28:46.890Z,746.97
2018-08-19T18:31:21.969Z,753.80
2018-08-19T18:33:53.351Z,697.63
2018-08-19T18:36:23.452Z,690.37
2018-08-19T18:38:51.931Z,703.17
2018-08-19T18:41:26.982Z,603.90
2018-08-19T18:43:58.791Z,683.70
2018-08-19T18:46:28.912Z,652.13
2018-08-19T18:49:03.226Z,632.63
2018-08-19T18:51:33.060Z,557.60
2018-08-19T18:54:01.677Z,702.40
2018-08-19T18:56:30.444Z,539.97
2018-08-19T18:58:59.140Z,563.90
2018-08-19T19:01:27.565Z,598.57
2018-08-19T19:03:55.994Z,439.47
2018-08-19T19:06:24.467Z,596.53
2018-08-19T19:08:53.201Z,534.73
2018-08-19T19:11:23.885Z,628.60
2018-08-19T19:13:52.655Z,522.57
2018-08-19T19:16:27.666Z,521.63
2018-08-19T19:18:56.881Z,386.67
2018-08-19T19:21:25.308Z,331.80
2018-08-19T19:23:53.755Z,421.83
2018-08-19T19:26:27.893Z,576.37
2018-08-19T19:28:58.654Z,523.70
2018-08-19T19:31:27.301Z,578.90
2018-08-19T19:34:06.520Z,539.27
2018-08-19T19:36:35.089Z,415.90
2018-08-19T19:39:03.821Z,362.80
2018-08-19T19:41:33.903Z,394.33
2018-08-19T19:44:35.340Z,428.33
2018-08-19T19:47:04.032Z,407.60
2018-08-19T19:49:32.576Z,323.40
2018-08-19T19:52:02.387Z,350.07
2018-08-19T19:54:31.956Z,536.17
2018-08-19T19:57:01.011Z,489.80
2018-08-19T19:59:32.191Z,451.53
2018-08-19T20:02:01.412Z,414.57
2018-08-19T20:04:29.860Z,467.27
2018-08-19T20:07:02.580Z,407.40
2018-08-19T20:09:34.760Z,523.40
2018-08-19T20:12:03.204Z,458.80
2018-08-19T20:14:35.764Z,467.20
2018-08-19T20:17:04.424Z,406.83
2018-08-19T20:19:33.000Z,521.50
2018-08-19T20:22:01.622Z,325.10
2018-08-19T20:24:30.069Z,388.50
2018-08-19T20:26:58.444Z,335.00
2018-08-19T20:29:26.966Z,349.93
2018-08-19T20:31:55.316Z,447.43
2018-08-19T20:34:23.754Z,481.93
2018-08-19T20:36:52.145Z,359.20
2018-08-19T20:39:20.635Z,410.30
2018-08-19T20:41:49.001Z,352.40
2018-08-19T20:44:17.640Z,355.07
2018-08-19T20:46:50.492Z,495.30
2018-08-19T20:49:18.907Z,395.53
2018-08-19T20:51:47.308Z,266.43
2018-08-19T20:54:15.688Z,383.40
2018-08-19T20:56:44.084Z,330.83
2018-08-19T20:59:13.667Z,402.90
2018-08-19T21:01:42.018Z,365.00
2018-08-19T21:04:10.607Z,444.00
2018-08-19T21:06:39.061Z,394.77
2018-08-19T21:09:07.611Z,421.47
2018-08-19T21:11:36.150Z,305.30
2018-08-19T21:14:05.342Z,425.20
2018-08-19T21:16:33.935Z,263.23
2018-08-19T21:19:02.513Z,223.90
2018-08-19T21:21:31.711Z,342.17
2018-08-19T21:24:00.063Z,102.07
2018-08-19T21:26:28.587Z,229.70
2018-08-19T21:29:03.659Z,251.40
2018-08-19T21:31:33.211Z,275.63
2018-08-19T21:34:01.563Z,350.90
2018-08-19T21:36:29.989Z,350.77
2018-08-19T21:38:58.519Z,329.40
2018-08-19T21:41:44.342Z,255.93
2018-08-19T21:44:13.131Z,311.87
2018-08-19T21:46:41.489Z,223.57
2018-08-19T21:49:10.244Z,384.80
2018-08-19T21:51:38.982Z,347.27
2018-08-19T21:54:08.143Z,195.97
2018-08-19T21:56:36.577Z,226.90
2018-08-19T21:59:09.455Z,267.07
2018-08-19T22:01:40.667Z,281.47
2018-08-19T22:04:09.420Z,219.10
2018-08-19T22:06:37.847Z,152.57
2018-08-19T22:09:10.547Z,145.60
2018-08-19T22:11:39.228Z,220.20
2018-08-19T22:14:07.708Z,255.97
2018-08-19T22:16:36.096Z,234.97
2018-08-19T22:19:04.801Z,143.90
2018-08-19T22:21:33.189Z,221.13
2018-08-19T22:24:01.527Z,230.80
2018-08-19T22:26:29.913Z,72.77
2018-08-19T22:29:15.716Z,131.03
2018-08-19T22:31:44.308Z,231.33
2018-08-19T22:34:12.652Z,107.07
2018-08-19T22:36:41.058Z,122.97
2018-08-19T22:39:10.484Z,197.50
2018-08-19T22:41:38.856Z,228.13
2018-08-19T22:44:07.245Z,112.77
2018-08-19T22:46:35.875Z,99.60
2018-08-19T22:49:04.284Z,61.67
2018-08-19T22:51:33.800Z,210.17
2018-08-19T22:54:02.430Z,111.57
2018-08-19T22:56:30.831Z,134.40
2018-08-19T22:58:59.268Z,186.90
2018-08-19T23:01:33.159Z,136.73
2018-08-19T23:04:02.983Z,152.97
2018-08-19T23:06:32.197Z,186.67
2018-08-19T23:09:01.115Z,171.73
2018-08-19T23:11:35.871Z,67.33
2018-08-19T23:14:15.937Z,138.40
2018-08-19T23:16:44.411Z,121.53
2018-08-19T23:19:13.015Z,162.43
2018-08-19T23:21:41.379Z,134.50
2018-08-19T23:24:09.751Z,160.03
2018-08-19T23:26:38.200Z,141.07
2018-08-19T23:29:06.711Z,143.57
2018-08-19T23:31:35.168Z,67.80
2018-08-19T23:34:03.560Z,139.50
2018-08-19T23:36:32.076Z,108.40
2018-08-19T23:39:00.492Z,137.57
2018-08-19T23:41:28.886Z,164.13
2018-08-19T23:43:57.251Z,200.03
2018-08-19T23:46:25.644Z,136.60
2018-08-19T23:48:54.232Z,57.37
2018-08-19T23:51:25.885Z,85.33
2018-08-19T23:53:54.220Z,58.80
2018-08-19T23:56:22.736Z,158.20
2018-08-19T23:58:51.200Z,39.27
